This is the latest recevied weather packets stored in our database for station/object KD0MAC. If no packets are shown the sender has not sent any weather packets the latest 1 day(s).
| Time | Temp. | Humidity | Pressure | Rain* | Wind** | Luminosity | Snow |
|---|---|---|---|---|---|---|---|
| 1778085994 | 9.44° C | 80% | 1019.6 hPa | 0 mm | - | 246 W/m² | - |
| 1778085694 | 9.44° C | 79% | 1019.6 hPa | 0 mm | - | 254 W/m² | - |
| 1778085394 | 9.44° C | 77% | 1019.6 hPa | 0 mm | - | 262 W/m² | - |
| 1778084494 | 8.89° C | 82% | 1019.6 hPa | 0 mm | - | 363 W/m² | - |
| 1778081797 | 7.22° C | 88% | 1019.6 hPa | 0.25 mm | - | 264 W/m² | - |
| 1778081494 | 6.67° C | 90% | 1019.6 hPa | 0.25 mm | - | 241 W/m² | - |
| 1778080594 | 6.11° C | 93% | 1019.6 hPa | 0.25 mm | - | 111 W/m² | - |
| 1778079994 | 6.11° C | 93% | 1019.6 hPa | 0.25 mm | - | 59 W/m² | - |
| 1778079394 | 6.11° C | 93% | 1019.6 hPa | 0.25 mm | - | 88 W/m² | - |
| 1778079094 | 6.11° C | 93% | 1019.6 hPa | 0.25 mm | - | 84 W/m² | - |
| 1778078794 | 6.11° C | 93% | 1019.6 hPa | 0.25 mm | - | 76 W/m² | - |
| 1778078196 | 6.11° C | 93% | 1019.6 hPa | 0.25 mm | - | 58 W/m² | - |
| 1778077894 | 5.56° C | 93% | 1019.3 hPa | 0.25 mm | - | 66 W/m² | - |
| 1778077594 | 6.11° C | 94% | 1019.6 hPa | 0.25 mm | - | 111 W/m² | - |
| 1778076394 | 6.11° C | 94% | 1019.3 hPa | 0.25 mm | - | 39 W/m² | - |
| 1778076097 | 5.56° C | 94% | 1019.3 hPa | 0.25 mm | - | 37 W/m² | - |
| 1778075194 | 6.11° C | 95% | 1019.3 hPa | 0.25 mm | - | 29 W/m² | - |
| 1778074894 | 6.11° C | 95% | 1019.3 hPa | 0.25 mm | - | 54 W/m² | - |
| 1778074595 | 5.56° C | 95% | 1019.3 hPa | 0.25 mm | - | 50 W/m² | - |
| 1778073694 | 5.56° C | 95% | 1019 hPa | 0 mm | - | 27 W/m² | - |
| 1778072800 | 5.56° C | 95% | 1018.6 hPa | 0 mm | - | 22 W/m² | - |
| 1778072194 | 5.56° C | 95% | 1018.6 hPa | 0 mm | - | 20 W/m² | - |
| 1778071597 | 5° C | 95% | 1018.3 hPa | 0 mm | - | 21 W/m² | - |
| 1778071294 | 5° C | 94% | 1018.3 hPa | 0 mm | - | 18 W/m² | - |
| 1778070996 | 5° C | 94% | 1018.3 hPa | 0 mm | - | 18 W/m² | - |
* Rain latest hour (hover to see other rain measurements)
** Current wind speed in m/s (hover to see current wind gust speed)